sensor_id;sensor_type;location;lat;lon;timestamp;pressure;altitude;pressure_sealevel;temperature;humidity
41513;BME280;27244;59.940;30.280;2023-03-03T00:02:05;99845.28;;;23.23;25.02
41513;BME280;27244;59.940;30.280;2023-03-03T00:04:32;99839.66;;;23.23;24.84
41513;BME280;27244;59.940;30.280;2023-03-03T00:06:59;99844.53;;;23.22;24.88
41513;BME280;27244;59.940;30.280;2023-03-03T00:09:25;99839.50;;;23.17;24.91
41513;BME280;27244;59.940;30.280;2023-03-03T00:11:55;99848.59;;;23.21;24.85
41513;BME280;27244;59.940;30.280;2023-03-03T00:14:27;99849.38;;;23.22;24.93
41513;BME280;27244;59.940;30.280;2023-03-03T00:16:55;99842.44;;;23.14;25.00
41513;BME280;27244;59.940;30.280;2023-03-03T00:19:24;99858.75;;;23.19;25.03
41513;BME280;27244;59.940;30.280;2023-03-03T00:21:52;99852.00;;;23.16;24.97
41513;BME280;27244;59.940;30.280;2023-03-03T00:24:24;99852.00;;;23.16;24.71
41513;BME280;27244;59.940;30.280;2023-03-03T00:26:52;99852.78;;;23.17;24.73
41513;BME280;27244;59.940;30.280;2023-03-03T00:29:29;99848.72;;;23.18;24.91
41513;BME280;27244;59.940;30.280;2023-03-03T00:32:15;99845.28;;;23.23;24.67
41513;BME280;27244;59.940;30.280;2023-03-03T00:34:45;99833.38;;;23.10;24.55
41513;BME280;27244;59.940;30.280;2023-03-03T00:37:30;99841.72;;;23.22;24.60
41513;BME280;27244;59.940;30.280;2023-03-03T00:42:47;99839.94;;;23.16;24.56
41513;BME280;27244;59.940;30.280;2023-03-03T00:45:23;99838.41;;;23.15;24.49
41513;BME280;27244;59.940;30.280;2023-03-03T00:47:53;99834.47;;;23.12;24.46
41513;BME280;27244;59.940;30.280;2023-03-03T00:50:32;99839.50;;;23.17;24.47
41513;BME280;27244;59.940;30.280;2023-03-03T00:53:05;99844.78;;;23.15;24.55
41513;BME280;27244;59.940;30.280;2023-03-03T00:55:33;99840.88;;;23.13;24.43
41513;BME280;27244;59.940;30.280;2023-03-03T00:58:00;99836.97;;;23.10;24.35
41513;BME280;27244;59.940;30.280;2023-03-03T01:00:32;99833.66;;;23.12;24.31
41513;BME280;27244;59.940;30.280;2023-03-03T01:03:02;99834.16;;;23.10;24.32
41513;BME280;27244;59.940;30.280;2023-03-03T01:05:31;99836.50;;;23.12;24.15
41513;BME280;27244;59.940;30.280;2023-03-03T01:07:58;99837.09;;;23.07;24.29
41513;BME280;27244;59.940;30.280;2023-03-03T01:10:26;99836.19;;;23.10;24.19
41513;BME280;27244;59.940;30.280;2023-03-03T01:12:54;99841.94;;;23.06;24.49
41513;BME280;27244;59.940;30.280;2023-03-03T01:15:22;99844.31;;;23.08;24.27
41513;BME280;27244;59.940;30.280;2023-03-03T01:17:49;99832.06;;;23.01;24.22
41513;BME280;27244;59.940;30.280;2023-03-03T01:20:16;99846.78;;;23.05;24.16
41513;BME280;27244;59.940;30.280;2023-03-03T01:22:45;99845.53;;;23.07;24.14
41513;BME280;27244;59.940;30.280;2023-03-03T01:25:12;99839.56;;;23.04;24.11
41513;BME280;27244;59.940;30.280;2023-03-03T01:27:39;99845.22;;;23.04;24.12
41513;BME280;27244;59.940;30.280;2023-03-03T01:30:07;99840.38;;;23.05;24.00
41513;BME280;27244;59.940;30.280;2023-03-03T01:32:35;99846.00;;;23.05;23.93
41513;BME280;27244;59.940;30.280;2023-03-03T01:35:02;99843.97;;;23.05;23.96
41513;BME280;27244;59.940;30.280;2023-03-03T01:37:29;99837.38;;;22.99;23.89
41513;BME280;27244;59.940;30.280;2023-03-03T01:39:57;99841.63;;;23.04;23.91
41513;BME280;27244;59.940;30.280;2023-03-03T01:42:24;99851.31;;;23.03;23.93
41513;BME280;27244;59.940;30.280;2023-03-03T01:45:16;99841.81;;;23.10;24.11
41513;BME280;27244;59.940;30.280;2023-03-03T01:47:47;99842.66;;;22.97;23.83
41513;BME280;27244;59.940;30.280;2023-03-03T01:50:24;99844.91;;;23.02;24.06
41513;BME280;27244;59.940;30.280;2023-03-03T01:52:53;99844.59;;;23.00;23.89
41513;BME280;27244;59.940;30.280;2023-03-03T01:55:27;99846.47;;;23.03;23.89
41513;BME280;27244;59.940;30.280;2023-03-03T01:57:58;99837.03;;;22.97;23.65
41513;BME280;27244;59.940;30.280;2023-03-03T02:00:26;99844.25;;;22.98;23.69
41513;BME280;27244;59.940;30.280;2023-03-03T02:02:53;99843.94;;;22.96;23.77
41513;BME280;27244;59.940;30.280;2023-03-03T02:05:21;99846.75;;;22.96;23.75
41513;BME280;27244;59.940;30.280;2023-03-03T02:07:50;99843.94;;;22.96;23.70
41513;BME280;27244;59.940;30.280;2023-03-03T02:10:18;99839.22;;;22.93;23.71
41513;BME280;27244;59.940;30.280;2023-03-03T02:12:50;99841.44;;;22.98;23.72
41513;BME280;27244;59.940;30.280;2023-03-03T02:15:20;99834.22;;;22.97;23.59
41513;BME280;27244;59.940;30.280;2023-03-03T02:17:49;99835.63;;;22.93;23.76
41513;BME280;27244;59.940;30.280;2023-03-03T02:20:27;99845.34;;;23.01;23.64
41513;BME280;27244;59.940;30.280;2023-03-03T02:23:00;99837.97;;;22.94;23.63
41513;BME280;27244;59.940;30.280;2023-03-03T02:25:36;99841.44;;;22.98;23.65
41513;BME280;27244;59.940;30.280;2023-03-03T02:28:08;99844.72;;;22.97;23.43
41513;BME280;27244;59.940;30.280;2023-03-03T02:30:37;99835.28;;;22.91;23.66
41513;BME280;27244;59.940;30.280;2023-03-03T02:33:06;99858.00;;;22.96;23.56
41513;BME280;27244;59.940;30.280;2023-03-03T02:35:34;99853.59;;;22.95;23.49
41513;BME280;27244;59.940;30.280;2023-03-03T02:38:16;99851.44;;;22.99;23.76
41513;BME280;27244;59.940;30.280;2023-03-03T02:40:51;99844.84;;;22.93;23.41
41513;BME280;27244;59.940;30.280;2023-03-03T02:43:22;99846.09;;;22.92;23.46
41513;BME280;27244;59.940;30.280;2023-03-03T02:45:51;99850.81;;;22.95;23.43
41513;BME280;27244;59.940;30.280;2023-03-03T02:48:18;99842.78;;;22.85;23.41
41513;BME280;27244;59.940;30.280;2023-03-03T02:50:45;99861.72;;;22.93;23.46
41513;BME280;27244;59.940;30.280;2023-03-03T02:53:12;99854.53;;;22.92;23.54
41513;BME280;27244;59.940;30.280;2023-03-03T02:55:39;99858.59;;;22.91;23.26
41513;BME280;27244;59.940;30.280;2023-03-03T02:58:06;99851.84;;;22.89;23.45
41513;BME280;27244;59.940;30.280;2023-03-03T03:00:34;99857.78;;;22.91;23.39
41513;BME280;27244;59.940;30.280;2023-03-03T03:03:01;99849.84;;;22.89;23.39
41513;BME280;27244;59.940;30.280;2023-03-03T03:05:29;99853.09;;;22.88;23.34
41513;BME280;27244;59.940;30.280;2023-03-03T03:07:56;99858.72;;;22.88;23.46
41513;BME280;27244;59.940;30.280;2023-03-03T03:10:23;99856.69;;;22.88;23.46
41513;BME280;27244;59.940;30.280;2023-03-03T03:12:51;99827.09;;;22.75;23.31
41513;BME280;27244;59.940;30.280;2023-03-03T03:15:18;99854.34;;;22.87;23.38
41513;BME280;27244;59.940;30.280;2023-03-03T03:17:46;99844.66;;;22.88;23.17
41513;BME280;27244;59.940;30.280;2023-03-03T03:20:14;99847.91;;;22.86;23.34
41513;BME280;27244;59.940;30.280;2023-03-03T03:22:41;99845.09;;;22.86;23.32
41513;BME280;27244;59.940;30.280;2023-03-03T03:25:09;99843.56;;;22.85;23.27
41513;BME280;27244;59.940;30.280;2023-03-03T03:27:36;99839.47;;;22.86;23.33
41513;BME280;27244;59.940;30.280;2023-03-03T03:30:04;99836.22;;;22.88;23.28
41513;BME280;27244;59.940;30.280;2023-03-03T03:32:31;99846.03;;;22.83;23.37
41513;BME280;27244;59.940;30.280;2023-03-03T03:35:03;99834.78;;;22.83;23.31
41513;BME280;27244;59.940;30.280;2023-03-03T03:37:31;99841.53;;;22.86;23.32
41513;BME280;27244;59.940;30.280;2023-03-03T03:39:58;99835.56;;;22.84;23.35
41513;BME280;27244;59.940;30.280;2023-03-03T03:42:26;99829.94;;;22.84;23.34
41513;BME280;27244;59.940;30.280;2023-03-03T03:44:53;99833.25;;;22.82;23.36
41513;BME280;27244;59.940;30.280;2023-03-03T03:47:20;99832.31;;;22.85;23.20
41513;BME280;27244;59.940;30.280;2023-03-03T03:49:47;99827.47;;;22.86;23.29
41513;BME280;27244;59.940;30.280;2023-03-03T03:52:19;99837.00;;;22.88;23.21
41513;BME280;27244;59.940;30.280;2023-03-03T03:54:46;99837.69;;;23.01;23.42
41513;BME280;27244;59.940;30.280;2023-03-03T03:57:13;99833.84;;;22.86;22.92
41513;BME280;27244;59.940;30.280;2023-03-03T03:59:48;99833.53;;;22.84;23.16
41513;BME280;27244;59.940;30.280;2023-03-03T04:02:15;99833.25;;;22.82;23.19
41513;BME280;27244;59.940;30.280;2023-03-03T04:04:42;99845.72;;;22.81;23.10
41513;BME280;27244;59.940;30.280;2023-03-03T04:07:09;99845.38;;;22.79;23.18
41513;BME280;27244;59.940;30.280;2023-03-03T04:09:38;99845.72;;;22.81;23.16
41513;BME280;27244;59.940;30.280;2023-03-03T04:12:06;99840.69;;;22.76;22.97
41513;BME280;27244;59.940;30.280;2023-03-03T04:14:34;99839.00;;;22.79;23.28
41513;BME280;27244;59.940;30.280;2023-03-03T04:17:01;99839.75;;;22.79;23.26
41513;BME280;27244;59.940;30.280;2023-03-03T04:19:29;99836.94;;;22.79;23.26
41513;BME280;27244;59.940;30.280;2023-03-03T04:21:56;99837.41;;;22.78;23.19
41513;BME280;27244;59.940;30.280;2023-03-03T04:24:23;99838.78;;;22.73;23.23
41513;BME280;27244;59.940;30.280;2023-03-03T04:26:52;99847.09;;;22.77;23.17
41513;BME280;27244;59.940;30.280;2023-03-03T04:29:19;99849.47;;;22.78;23.07
41513;BME280;27244;59.940;30.280;2023-03-03T04:31:46;99845.50;;;22.76;23.05
41513;BME280;27244;59.940;30.280;2023-03-03T04:34:13;99851.94;;;22.76;23.06
41513;BME280;27244;59.940;30.280;2023-03-03T04:36:42;99842.69;;;22.76;23.08
41513;BME280;27244;59.940;30.280;2023-03-03T04:39:09;99844.28;;;22.77;22.94
41513;BME280;27244;59.940;30.280;2023-03-03T04:41:36;99833.50;;;22.75;22.95
41513;BME280;27244;59.940;30.280;2023-03-03T04:44:05;99840.69;;;22.76;23.06
41513;BME280;27244;59.940;30.280;2023-03-03T04:46:32;99839.91;;;22.76;22.76
41513;BME280;27244;59.940;30.280;2023-03-03T04:48:59;99840.38;;;22.74;23.01
41513;BME280;27244;59.940;30.280;2023-03-03T04:51:26;99848.81;;;22.74;22.93
41513;BME280;27244;59.940;30.280;2023-03-03T04:53:54;99842.41;;;22.74;23.05
41513;BME280;27244;59.940;30.280;2023-03-03T04:56:21;99836.78;;;22.74;23.05
41513;BME280;27244;59.940;30.280;2023-03-03T04:58:48;99846.31;;;22.76;22.81
41513;BME280;27244;59.940;30.280;2023-03-03T05:01:17;99850.38;;;22.75;22.84
41513;BME280;27244;59.940;30.280;2023-03-03T05:03:44;99853.63;;;22.74;22.83
41513;BME280;27244;59.940;30.280;2023-03-03T05:06:11;99851.13;;;22.76;22.65
41513;BME280;27244;59.940;30.280;2023-03-03T05:08:38;99848.16;;;22.70;22.83
41513;BME280;27244;59.940;30.280;2023-03-03T05:11:07;99850.38;;;22.75;22.81
41513;BME280;27244;59.940;30.280;2023-03-03T05:13:34;99843.19;;;22.74;22.78
41513;BME280;27244;59.940;30.280;2023-03-03T05:16:02;99847.56;;;22.75;22.69
41513;BME280;27244;59.940;30.280;2023-03-03T05:18:30;99838.94;;;22.70;22.57
41513;BME280;27244;59.940;30.280;2023-03-03T05:20:57;99845.19;;;22.74;22.76
41513;BME280;27244;59.940;30.280;2023-03-03T05:23:24;99850.38;;;22.75;22.68
41513;BME280;27244;59.940;30.280;2023-03-03T05:25:51;99856.91;;;22.72;22.93
41513;BME280;27244;59.940;30.280;2023-03-03T05:28:21;99857.56;;;22.76;22.81
41513;BME280;27244;59.940;30.280;2023-03-03T05:30:48;99846.44;;;22.73;22.87
41513;BME280;27244;59.940;30.280;2023-03-03T05:33:16;99854.88;;;22.73;22.93
41513;BME280;27244;59.940;30.280;2023-03-03T05:35:52;99854.88;;;22.73;23.04
41513;BME280;27244;59.940;30.280;2023-03-03T05:38:19;99852.53;;;22.71;23.03
41513;BME280;27244;59.940;30.280;2023-03-03T05:40:46;99851.97;;;22.64;22.98
41513;BME280;27244;59.940;30.280;2023-03-03T05:43:13;99857.13;;;22.65;22.89
41513;BME280;27244;59.940;30.280;2023-03-03T05:45:40;99863.78;;;22.71;22.77
41513;BME280;27244;59.940;30.280;2023-03-03T05:48:07;99859.50;;;22.67;22.75
41513;BME280;27244;59.940;30.280;2023-03-03T05:50:39;99861.88;;;22.68;22.86
41513;BME280;27244;59.940;30.280;2023-03-03T05:53:07;99859.16;;;22.65;22.77
41513;BME280;27244;59.940;30.280;2023-03-03T05:55:34;99877.84;;;22.71;22.71
41513;BME280;27244;59.940;30.280;2023-03-03T05:58:03;99874.78;;;22.66;22.76
41513;BME280;27244;59.940;30.280;2023-03-03T06:00:30;99879.06;;;22.70;22.76
41513;BME280;27244;59.940;30.280;2023-03-03T06:02:57;99873.75;;;22.72;22.89
41513;BME280;27244;59.940;30.280;2023-03-03T06:05:24;99870.63;;;22.70;22.79
41513;BME280;27244;59.940;30.280;2023-03-03T06:07:51;99881.09;;;22.70;22.83
41513;BME280;27244;59.940;30.280;2023-03-03T06:10:19;99873.75;;;22.72;22.86
41513;BME280;27244;59.940;30.280;2023-03-03T06:12:50;99868.16;;;22.72;22.70
41513;BME280;27244;59.940;30.280;2023-03-03T06:15:18;99875.03;;;22.71;22.80
41513;BME280;27244;59.940;30.280;2023-03-03T06:17:45;99870.19;;;22.72;22.63
41513;BME280;27244;59.940;30.280;2023-03-03T06:20:12;99879.06;;;22.70;22.68
41513;BME280;27244;59.940;30.280;2023-03-03T06:22:39;99882.66;;;22.71;22.76
41513;BME280;27244;59.940;30.280;2023-03-03T06:25:06;99867.72;;;22.61;22.83
41513;BME280;27244;59.940;30.280;2023-03-03T06:27:35;99881.53;;;22.68;22.82
41513;BME280;27244;59.940;30.280;2023-03-03T06:30:03;99879.19;;;22.67;22.72
41513;BME280;27244;59.940;30.280;2023-03-03T06:32:30;99880.09;;;22.64;22.75
41513;BME280;27244;59.940;30.280;2023-03-03T06:34:57;99878.38;;;22.66;22.81
41513;BME280;27244;59.940;30.280;2023-03-03T06:37:24;99884.47;;;22.65;22.71
41513;BME280;27244;59.940;30.280;2023-03-03T06:39:51;99878.84;;;22.65;22.69
41513;BME280;27244;59.940;30.280;2023-03-03T06:42:18;99878.84;;;22.65;22.83
41513;BME280;27244;59.940;30.280;2023-03-03T06:44:47;99887.63;;;22.67;22.55
41513;BME280;27244;59.940;30.280;2023-03-03T06:47:14;99878.84;;;22.65;22.52
41513;BME280;27244;59.940;30.280;2023-03-03T06:49:41;99883.69;;;22.64;22.76
41513;BME280;27244;59.940;30.280;2023-03-03T06:52:11;99895.16;;;22.70;22.74
41513;BME280;27244;59.940;30.280;2023-03-03T06:54:39;99884.47;;;22.65;22.68
41513;BME280;27244;59.940;30.280;2023-03-03T06:57:15;99885.94;;;22.69;22.62
41513;BME280;27244;59.940;30.280;2023-03-03T06:59:42;99885.50;;;22.58;22.87
41513;BME280;27244;59.940;30.280;2023-03-03T07:02:15;99900.00;;;22.69;22.83
41513;BME280;27244;59.940;30.280;2023-03-03T07:04:43;99892.13;;;22.64;22.74
41513;BME280;27244;59.940;30.280;2023-03-03T07:07:16;99898.75;;;22.70;22.66
41513;BME280;27244;59.940;30.280;2023-03-03T07:09:45;99891.78;;;22.62;22.73
41513;BME280;27244;59.940;30.280;2023-03-03T07:12:15;99886.81;;;22.66;22.58
41513;BME280;27244;59.940;30.280;2023-03-03T07:14:45;99891.56;;;22.69;22.64
41513;BME280;27244;59.940;30.280;2023-03-03T07:17:19;99883.91;;;22.70;23.15
41513;BME280;27244;59.940;30.280;2023-03-03T07:19:47;99886.59;;;22.73;23.96
41513;BME280;27244;59.940;30.280;2023-03-03T07:22:16;99871.09;;;22.69;23.64
41513;BME280;27244;59.940;30.280;2023-03-03T07:24:44;99891.50;;;22.82;23.57
41513;BME280;27244;59.940;30.280;2023-03-03T07:27:16;99895.41;;;22.84;23.60
41513;BME280;27244;59.940;30.280;2023-03-03T07:29:47;99883.84;;;22.82;23.63
41513;BME280;27244;59.940;30.280;2023-03-03T07:32:25;99893.13;;;22.92;23.54
41513;BME280;27244;59.940;30.280;2023-03-03T07:34:53;99882.78;;;22.89;23.67
41513;BME280;27244;59.940;30.280;2023-03-03T07:37:28;99884.84;;;22.97;23.79
41513;BME280;27244;59.940;30.280;2023-03-03T07:39:56;99888.16;;;22.96;23.89
41513;BME280;27244;59.940;30.280;2023-03-03T07:42:25;99881.59;;;22.99;23.95
41513;BME280;27244;59.940;30.280;2023-03-03T07:45:22;99884.59;;;23.04;23.86
41513;BME280;27244;59.940;30.280;2023-03-03T07:47:55;99885.84;;;23.03;24.02
41513;BME280;27244;59.940;30.280;2023-03-03T07:50:26;99880.81;;;22.98;24.27
41513;BME280;27244;59.940;30.280;2023-03-03T07:52:56;99894.28;;;23.03;24.28
41513;BME280;27244;59.940;30.280;2023-03-03T07:55:32;99889.75;;;23.06;24.23
41513;BME280;27244;59.940;30.280;2023-03-03T07:58:15;99890.88;;;23.09;24.19
41513;BME280;27244;59.940;30.280;2023-03-03T08:03:54;99893.81;;;23.05;24.56
41513;BME280;27244;59.940;30.280;2023-03-03T08:06:39;99886.03;;;23.09;24.45
41513;BME280;27244;59.940;30.280;2023-03-03T08:09:38;99884.78;;;23.10;24.43
41513;BME280;27244;59.940;30.280;2023-03-03T08:15:22;99881.84;;;23.14;24.68
41513;BME280;27244;59.940;30.280;2023-03-03T08:17:51;99891.19;;;23.11;24.77
41513;BME280;27244;59.940;30.280;2023-03-03T08:20:48;99887.47;;;23.14;25.06
41513;BME280;27244;59.940;30.280;2023-03-03T08:23:17;99888.19;;;23.05;25.34
41513;BME280;27244;59.940;30.280;2023-03-03T08:25:44;99886.44;;;22.98;25.57
41513;BME280;27244;59.940;30.280;2023-03-03T08:28:12;99895.22;;;23.00;25.62
41513;BME280;27244;59.940;30.280;2023-03-03T08:30:42;99892.06;;;22.98;25.63
41513;BME280;27244;59.940;30.280;2023-03-03T08:33:11;99888.00;;;22.99;25.77
41513;BME280;27244;59.940;30.280;2023-03-03T08:35:38;99880.81;;;22.98;25.86
41513;BME280;27244;59.940;30.280;2023-03-03T08:38:07;99881.59;;;22.99;25.89
41513;BME280;27244;59.940;30.280;2023-03-03T08:40:34;99878.00;;;22.98;26.02
41513;BME280;27244;59.940;30.280;2023-03-03T08:43:02;99886.44;;;22.98;26.00
41513;BME280;27244;59.940;30.280;2023-03-03T08:45:30;99881.59;;;22.99;26.38
41513;BME280;27244;59.940;30.280;2023-03-03T08:47:57;99886.78;;;23.00;26.20
41513;BME280;27244;59.940;30.280;2023-03-03T08:50:27;99874.09;;;22.96;26.18
41513;BME280;27244;59.940;30.280;2023-03-03T08:52:54;99883.03;;;23.03;26.29
41513;BME280;27244;59.940;30.280;2023-03-03T08:55:23;99882.13;;;23.07;26.24
41513;BME280;27244;59.940;30.280;2023-03-03T08:57:50;99884.13;;;23.06;26.36
41513;BME280;27244;59.940;30.280;2023-03-03T09:00:18;99889.31;;;23.08;26.29
41513;BME280;27244;59.940;30.280;2023-03-03T09:02:45;99886.31;;;23.02;26.50
41513;BME280;27244;59.940;30.280;2023-03-03T09:05:13;99883.03;;;23.03;26.36
41513;BME280;27244;59.940;30.280;2023-03-03T09:07:41;99894.94;;;23.08;26.42
41513;BME280;27244;59.940;30.280;2023-03-03T09:10:09;99894.03;;;23.11;26.41
41513;BME280;27244;59.940;30.280;2023-03-03T09:12:40;99889.94;;;23.12;26.47
41513;BME280;27244;59.940;30.280;2023-03-03T09:15:16;99883.91;;;23.22;25.92
41513;BME280;27244;59.940;30.280;2023-03-03T09:17:44;99888.06;;;23.09;26.47
41513;BME280;27244;59.940;30.280;2023-03-03T09:20:23;99887.47;;;23.14;26.42
41513;BME280;27244;59.940;30.280;2023-03-03T09:22:50;99887.59;;;23.10;26.72
41513;BME280;27244;59.940;30.280;2023-03-03T09:25:22;99885.25;;;23.09;26.70
41513;BME280;27244;59.940;30.280;2023-03-03T09:27:53;99883.03;;;23.03;26.88
41513;BME280;27244;59.940;30.280;2023-03-03T09:30:38;99886.03;;;23.09;26.82
41513;BME280;27244;59.940;30.280;2023-03-03T09:33:22;99882.13;;;23.07;26.81
41513;BME280;27244;59.940;30.280;2023-03-03T09:35:52;99876.09;;;22.95;27.15
41513;BME280;27244;59.940;30.280;2023-03-03T09:38:29;99875.06;;;23.02;27.21
41513;BME280;27244;59.940;30.280;2023-03-03T09:41:21;99873.34;;;23.04;27.47
41513;BME280;27244;59.940;30.280;2023-03-03T09:44:05;99870.84;;;23.07;27.63
41513;BME280;27244;59.940;30.280;2023-03-03T09:46:40;99859.59;;;23.07;27.83
41513;BME280;27244;59.940;30.280;2023-03-03T09:49:20;99867.91;;;23.10;27.87
41513;BME280;27244;59.940;30.280;2023-03-03T09:52:10;99871.50;;;23.11;28.10
41513;BME280;27244;59.940;30.280;2023-03-03T09:55:00;99874.50;;;23.16;28.08
41513;BME280;27244;59.940;30.280;2023-03-03T09:57:51;99874.84;;;23.18;28.06
41513;BME280;27244;59.940;30.280;2023-03-03T10:00:37;99874.50;;;23.16;28.21
41513;BME280;27244;59.940;30.280;2023-03-03T10:03:24;99863.88;;;23.20;28.24
41513;BME280;27244;59.940;30.280;2023-03-03T10:06:02;99858.84;;;23.15;28.32
41513;BME280;27244;59.940;30.280;2023-03-03T10:08:40;99866.69;;;23.20;28.18
41513;BME280;27244;59.940;30.280;2023-03-03T10:11:18;99873.25;;;23.17;29.00
41513;BME280;27244;59.940;30.280;2023-03-03T10:14:08;99863.88;;;23.20;28.63
41513;BME280;27244;59.940;30.280;2023-03-03T10:16:57;99862.97;;;23.23;28.39
41513;BME280;27244;59.940;30.280;2023-03-03T10:19:36;99864.69;;;23.21;28.37
41513;BME280;27244;59.940;30.280;2023-03-03T10:22:17;99866.91;;;23.26;28.51
41513;BME280;27244;59.940;30.280;2023-03-03T10:24:48;99857.69;;;23.34;27.88
41513;BME280;27244;59.940;30.280;2023-03-03T10:27:28;99863.59;;;23.27;28.38
41513;BME280;27244;59.940;30.280;2023-03-03T10:30:07;99860.00;;;23.27;28.34
41513;BME280;27244;59.940;30.280;2023-03-03T10:32:43;99862.81;;;23.27;28.47
41513;BME280;27244;59.940;30.280;2023-03-03T10:35:51;99866.28;;;23.31;28.25
41513;BME280;27244;59.940;30.280;2023-03-03T10:38:41;99862.69;;;23.30;28.23
41513;BME280;27244;59.940;30.280;2023-03-03T10:41:20;99860.34;;;23.29;28.49
41513;BME280;27244;59.940;30.280;2023-03-03T10:44:14;99862.22;;;23.32;28.19
41513;BME280;27244;59.940;30.280;2023-03-03T10:50:02;99872.25;;;23.33;28.25
41513;BME280;27244;59.940;30.280;2023-03-03T10:52:38;99863.94;;;23.29;28.49
41513;BME280;27244;59.940;30.280;2023-03-03T10:55:23;99865.03;;;23.32;28.34
41513;BME280;27244;59.940;30.280;2023-03-03T10:58:05;99864.91;;;23.35;28.20
41513;BME280;27244;59.940;30.280;2023-03-03T11:00:40;99856.59;;;23.32;28.46
41513;BME280;27244;59.940;30.280;2023-03-03T11:03:42;99862.38;;;23.37;28.27
41513;BME280;27244;59.940;30.280;2023-03-03T11:06:19;99855.22;;;23.36;28.40
41513;BME280;27244;59.940;30.280;2023-03-03T11:08:52;99853.78;;;23.32;28.44
41513;BME280;27244;59.940;30.280;2023-03-03T11:11:28;99855.22;;;23.36;28.31
41513;BME280;27244;59.940;30.280;2023-03-03T11:14:02;99862.09;;;23.35;28.41
41513;BME280;27244;59.940;30.280;2023-03-03T11:16:42;99844.28;;;23.38;28.32
41513;BME280;27244;59.940;30.280;2023-03-03T11:19:25;99840.22;;;23.39;28.71
41513;BME280;27244;59.940;30.280;2023-03-03T11:22:04;99849.09;;;23.38;28.36
41513;BME280;27244;59.940;30.280;2023-03-03T11:24:44;99836.91;;;23.41;28.35
41513;BME280;27244;59.940;30.280;2023-03-03T11:27:29;99826.59;;;23.38;28.31
41513;BME280;27244;59.940;30.280;2023-03-03T11:30:10;99811.72;;;23.28;28.35
41513;BME280;27244;59.940;30.280;2023-03-03T11:32:48;99828.47;;;23.41;28.43
41513;BME280;27244;59.940;30.280;2023-03-03T11:35:22;99832.56;;;23.40;28.29
41513;BME280;27244;59.940;30.280;2023-03-03T11:38:02;99817.69;;;23.39;28.24
41513;BME280;27244;59.940;30.280;2023-03-03T11:40:49;99823.22;;;23.43;28.19
41513;BME280;27244;59.940;30.280;2023-03-03T11:43:21;99807.81;;;23.35;28.46
41513;BME280;27244;59.940;30.280;2023-03-03T11:45:54;99808.47;;;23.39;28.35
41513;BME280;27244;59.940;30.280;2023-03-03T11:48:29;99802.06;;;23.38;28.32
41513;BME280;27244;59.940;30.280;2023-03-03T11:51:01;99793.44;;;23.33;28.22
41513;BME280;27244;59.940;30.280;2023-03-03T11:53:45;99796.56;;;23.35;28.28
41513;BME280;27244;59.940;30.280;2023-03-03T11:56:20;99805.31;;;23.37;28.33
41513;BME280;27244;59.940;30.280;2023-03-03T11:58:57;99792.81;;;23.38;28.26
41513;BME280;27244;59.940;30.280;2023-03-03T12:01:31;99798.16;;;23.36;28.39
41513;BME280;27244;59.940;30.280;2023-03-03T12:04:02;99798.16;;;23.36;28.34
41513;BME280;27244;59.940;30.280;2023-03-03T12:06:37;99811.28;;;23.39;28.31
41513;BME280;27244;59.940;30.280;2023-03-03T12:09:18;99789.56;;;23.39;28.19
41513;BME280;27244;59.940;30.280;2023-03-03T12:11:52;99792.03;;;23.37;28.34
41513;BME280;27244;59.940;30.280;2023-03-03T12:14:33;99784.38;;;23.38;28.33
41513;BME280;27244;59.940;30.280;2023-03-03T12:17:05;99787.69;;;23.36;28.34
41513;BME280;27244;59.940;30.280;2023-03-03T12:19:45;99789.22;;;23.37;28.49
41513;BME280;27244;59.940;30.280;2023-03-03T12:22:29;99790.34;;;23.40;28.33
41513;BME280;27244;59.940;30.280;2023-03-03T12:25:15;99789.56;;;23.39;28.23
41513;BME280;27244;59.940;30.280;2023-03-03T12:27:49;99787.88;;;23.42;28.39
41513;BME280;27244;59.940;30.280;2023-03-03T12:30:27;99781.44;;;23.41;28.31
41513;BME280;27244;59.940;30.280;2023-03-03T12:33:11;99776.94;;;23.44;28.25
41513;BME280;27244;59.940;30.280;2023-03-03T12:35:48;99775.38;;;23.43;28.41
41513;BME280;27244;59.940;30.280;2023-03-03T12:38:26;99770.19;;;23.41;28.35
41513;BME280;27244;59.940;30.280;2023-03-03T12:41:04;99772.56;;;23.43;28.44
41513;BME280;27244;59.940;30.280;2023-03-03T12:43:54;99766.91;;;23.43;28.34
41513;BME280;27244;59.940;30.280;2023-03-03T12:46:26;99766.91;;;23.43;28.47
41513;BME280;27244;59.940;30.280;2023-03-03T12:48:56;99749.97;;;23.34;28.47
41513;BME280;27244;59.940;30.280;2023-03-03T12:51:42;99761.94;;;23.47;28.21
41513;BME280;27244;59.940;30.280;2023-03-03T12:54:21;99761.59;;;23.45;28.47
41513;BME280;27244;59.940;30.280;2023-03-03T12:56:54;99756.13;;;23.41;28.54
41513;BME280;27244;59.940;30.280;2023-03-03T12:59:30;99758.78;;;23.45;28.50
41513;BME280;27244;59.940;30.280;2023-03-03T13:02:19;99755.03;;;23.48;28.39
41513;BME280;27244;59.940;30.280;2023-03-03T13:04:54;99756.31;;;23.56;27.95
41513;BME280;27244;59.940;30.280;2023-03-03T13:07:27;99753.47;;;23.47;28.52
41513;BME280;27244;59.940;30.280;2023-03-03T13:10:07;99749.41;;;23.48;28.55
41513;BME280;27244;59.940;30.280;2023-03-03T13:12:44;99718.88;;;23.28;28.43
41513;BME280;27244;59.940;30.280;2023-03-03T13:15:18;99748.78;;;23.44;28.60
41513;BME280;27244;59.940;30.280;2023-03-03T13:17:59;99751.13;;;23.45;28.55
41513;BME280;27244;59.940;30.280;2023-03-03T13:20:33;99753.47;;;23.47;28.38
41513;BME280;27244;59.940;30.280;2023-03-03T13:23:06;99747.22;;;23.43;28.60
41513;BME280;27244;59.940;30.280;2023-03-03T13:25:41;99752.38;;;23.44;28.44
41513;BME280;27244;59.940;30.280;2023-03-03T13:28:20;99747.84;;;23.47;28.50
41513;BME280;27244;59.940;30.280;2023-03-03T13:30:53;99731.56;;;23.42;28.55